Airfield :
LOGIN :

Register | Disclaimer

   EN    FR    IT 

 










Legend :    VFR   Marginal VFR   IFR   Intensive IFR   Very Intensive IFR
Visi :
Ceiling :
>= 8 km
>= 3000ft
5 to 8 km
1000 to 3000 ft
1500m to 5 km
500 to 1000 ft
800 to 1500m
200 to 500 ft
< 800m
< 200 ft
Symbols :   Thunderstorms  Fog  Heavy snow  Heavy precipitations  Wind > 20 kt
SIGMETs :     Misc.  Thunderstorms  Icing  Turbulence  Mountain Waves  Volcanic Ashes






- Airport Elevation : 863 ft
- IATA code : ZAZ


LEZG - Zaragoza Aragon

CURRENT METAR :
  • 290600Z 28007KT 9999 BKN020 20/14 Q1016

EXPIRED METARs :
  • 290530Z 28007KT 9999 BKN020 20/13 Q1016
  • 290500Z 28008KT 9999 BKN020 20/13 Q1016
  • 290430Z 28010KT 9999 BKN025 20/13 Q1016
  • 290400Z 28009KT 9999 BKN025 20/13 Q1016
  • 290330Z 28009KT 9999 SCT025 20/13 Q1016

TAF TAF LEZG
Valid from the 29 at 06:00 until the 30 at 06:00 UTC


290500Z 2906/3006 30010KT 9999 FEW070 TX37/2916Z TN20/2906Z
PROB40
TEMPO 2906/2907 VRB03KT
BECMG 2907/2909 VRB03KT
BECMG 2912/2914 09010KT
PROB40
TEMPO 2917/2920 12015G25KT



MET'MAP, your aeronautical weather chart ! - Copyright ORBIFLY December 2007 - Disclaimer

ORBIFLY MET'MAP TEAM :

Programming & Development : Alexandra Zaïnal
Concept & original design : Baudouin d'Aumeries
Assistance for programming : Marc-Olivier Méhu
Technical & hardware support : Manuel Goepfert

Contact : metmap@orbifly.com




SOURCES & CREDITS :

   NOAA